Time;durP1;ratioP1;P1;durP2;ratioP2;P2;SDS_P1;SDS_P2;PMS_P1;PMS_P2;Temp;Humidity;BMP_temperature;BMP_pressure;BME280_temperature;BME280_humidity;BME280_pressure;Samples;Min_cycle;Max_cycle;Signal;HPM_P1;HPM_P2
2024/02/22 00:00:19;;;;;;;;;;;;;;;9.10;100.00;95042.28;10368326;28;2509;-72
2024/02/22 00:05:22;;;;;;;;;;;;;;;9.13;100.00;95043.59;10365756;28;1781;-65
2024/02/22 00:10:28;;;;;;;;;;;;;;;9.20;100.00;95047.53;10362844;28;1451;-65
2024/02/22 00:15:31;;;;;;;;;;;;;;;9.41;100.00;95052.69;10364324;28;1675;-69
2024/02/22 00:20:34;;;;;;;;;;;;;;;9.49;100.00;95054.78;10365955;28;1914;-69
2024/02/22 00:25:36;;;;;;;;;;;;;;;9.65;100.00;95055.41;10363676;28;1111;-65
2024/02/22 00:30:39;;;;;;;;;;;;;;;9.65;100.00;95052.72;10365660;28;1742;-67
2024/02/22 00:35:42;;;;;;;;;;;;;;;9.34;100.00;95046.88;10359506;28;1409;-69
2024/02/22 00:40:44;;;;;;;;;;;;;;;8.97;100.00;95032.22;10363161;28;1958;-65
2024/02/22 00:45:47;;;;;;;;;;;;;;;8.83;100.00;95023.19;10366505;28;1303;-63
2024/02/22 00:50:49;;;;;;;;;;;;;;;8.64;100.00;95007.00;10361674;28;1389;-66
2024/02/22 00:55:52;;;;;;;;;;;;;;;8.51;100.00;95007.63;10363398;28;2281;-65
2024/02/22 01:00:54;;;;;;;;;;;;;;;8.43;100.00;94987.59;10360135;28;2072;-66
2024/02/22 01:05:57;;;;;;;;;;;;;;;8.24;100.00;94975.91;10357651;28;1549;-65
2024/02/22 01:10:59;;;;;;;;;;;;;;;8.22;100.00;94972.72;10363670;28;1731;-65
2024/02/22 01:16:01;;;;;;;;;;;;;;;8.25;100.00;94967.59;10366505;28;1430;-69
2024/02/22 01:21:04;;;;;;;;;;;;;;;8.22;100.00;94970.84;10364260;28;1918;-65
2024/02/22 01:26:06;;;;;;;;;;;;;;;8.27;100.00;94962.78;10368599;28;1083;-64
2024/02/22 01:31:09;;;;;;;;;;;;;;;8.29;100.00;94959.84;10359499;28;1661;-64
2024/02/22 01:36:14;;;;;;;;;;;;;;;8.24;100.00;94941.13;10357447;28;1394;-64
2024/02/22 01:41:16;;;;;;;;;;;;;;;8.32;100.00;94935.97;10365131;28;1914;-64
2024/02/22 01:46:19;;;;;;;;;;;;;;;8.33;100.00;94940.25;10361591;28;1017;-65
2024/02/22 01:51:21;;;;;;;;;;;;;;;8.33;100.00;94934.06;10356843;28;2066;-64
2024/02/22 01:56:24;;;;;;;;;;;;;;;8.20;100.00;94926.69;10354767;28;1554;-64
2024/02/22 02:01:27;;;;;;;;;;;;;;;8.04;100.00;94920.66;10360704;28;1910;-64
2024/02/22 02:06:29;;;;;;;;;;;;;;;7.93;100.00;94921.78;10363549;28;1441;-68
2024/02/22 02:11:32;;;;;;;;;;;;;;;7.85;100.00;94912.47;10374236;28;1127;-65
2024/02/22 02:16:35;;;;;;;;;;;;;;;7.85;100.00;94907.13;10378976;28;1313;-66
2024/02/22 02:21:38;;;;;;;;;;;;;;;7.80;100.00;94897.25;10377204;28;1987;-65
2024/02/22 02:26:40;;;;;;;;;;;;;;;7.78;100.00;94895.94;10377111;28;1228;-67
2024/02/22 02:31:43;;;;;;;;;;;;;;;7.77;100.00;94884.44;10371222;28;1623;-66
2024/02/22 02:36:45;;;;;;;;;;;;;;;7.78;100.00;94879.88;10363195;28;1405;-64
2024/02/22 02:41:48;;;;;;;;;;;;;;;7.74;100.00;94878.81;10366855;28;1995;-65
2024/02/22 02:46:50;;;;;;;;;;;;;;;7.69;100.00;94866.28;10367405;28;1093;-65
2024/02/22 02:51:53;;;;;;;;;;;;;;;7.71;100.00;94858.00;10362517;28;2455;-66
2024/02/22 02:56:56;;;;;;;;;;;;;;;7.65;100.00;94841.16;10368702;28;1097;-64
2024/02/22 03:01:58;;;;;;;;;;;;;;;7.58;100.00;94833.47;10367650;28;1973;-65
2024/02/22 03:07:01;;;;;;;;;;;;;;;7.59;100.00;94813.66;10362354;28;1369;-74
2024/02/22 03:12:03;;;;;;;;;;;;;;;7.62;100.00;94801.59;10369050;28;1365;-67
2024/02/22 03:17:06;;;;;;;;;;;;;;;7.66;100.00;94788.47;10370694;28;1290;-66
2024/02/22 03:22:09;;;;;;;;;;;;;;;7.68;100.00;94784.44;10369185;28;1910;-66
2024/02/22 03:27:11;;;;;;;;;;;;;;;7.81;100.00;94766.94;10363148;28;1185;-65
2024/02/22 03:32:14;;;;;;;;;;;;;;;7.94;100.00;94744.09;10362649;28;1337;-65
2024/02/22 03:37:17;;;;;;;;;;;;;;;7.97;100.00;94736.31;10363311;28;1372;-65
2024/02/22 03:42:21;;;;;;;;;;;;;;;8.03;100.00;94716.44;10365809;28;1974;-65
2024/02/22 03:47:23;;;;;;;;;;;;;;;8.07;100.00;94706.75;10367314;28;2365;-65
2024/02/22 03:52:26;;;;;;;;;;;;;;;8.07;100.00;94690.69;10360805;28;1317;-64
2024/02/22 03:57:28;;;;;;;;;;;;;;;8.06;100.00;94686.44;10364085;28;1072;-63
2024/02/22 04:02:31;;;;;;;;;;;;;;;8.03;100.00;94664.81;10366555;28;1902;-68
2024/02/22 04:07:36;;;;;;;;;;;;;;;7.90;100.00;94652.91;10359362;28;1381;-65
2024/02/22 04:12:39;;;;;;;;;;;;;;;7.86;100.00;94649.19;10364260;28;1112;-64
2024/02/22 04:17:42;;;;;;;;;;;;;;;7.85;100.00;94650.25;10363711;28;1987;-65
2024/02/22 04:22:44;;;;;;;;;;;;;;;7.71;100.00;94649.34;10362722;28;1421;-63
2024/02/22 04:27:47;;;;;;;;;;;;;;;7.62;100.00;94643.00;10366869;28;1032;-65
2024/02/22 04:32:49;;;;;;;;;;;;;;;7.54;100.00;94645.22;10361662;28;1464;-65
2024/02/22 04:37:53;;;;;;;;;;;;;;;7.55;100.00;94632.63;10364066;28;1973;-64
2024/02/22 04:42:56;;;;;;;;;;;;;;;7.57;100.00;94623.25;10363887;28;2316;-63
2024/02/22 04:47:59;;;;;;;;;;;;;;;7.58;100.00;94619.50;10356643;28;1426;-70
2024/02/22 04:53:06;;;;;;;;;;;;;;;7.51;100.00;94632.41;10363883;28;1484;-64
2024/02/22 04:58:09;;;;;;;;;;;;;;;7.63;100.00;94621.31;10367967;28;1926;-64
2024/02/22 05:03:12;;;;;;;;;;;;;;;7.62;100.00;94619.72;10365455;28;1083;-64
2024/02/22 05:08:15;;;;;;;;;;;;;;;7.68;100.00;94607.09;10364333;28;1627;-64
2024/02/22 05:13:18;;;;;;;;;;;;;;;7.70;100.00;94615.63;10369752;28;1468;-65
2024/02/22 05:18:21;;;;;;;;;;;;;;;7.68;100.00;94612.44;10366994;28;1906;-72
2024/02/22 05:23:23;;;;;;;;;;;;;;;7.70;100.00;94605.75;10358539;28;1393;-65
2024/02/22 05:28:26;;;;;;;;;;;;;;;7.75;100.00;94597.66;10357678;28;1392;-64
2024/02/22 05:33:29;;;;;;;;;;;;;;;7.72;100.00;94603.59;10362975;28;1371;-72
2024/02/22 05:38:32;;;;;;;;;;;;;;;7.73;100.00;94612.41;10364609;28;2424;-74
2024/02/22 05:43:35;;;;;;;;;;;;;;;7.65;100.00;94592.44;10361633;28;1962;-67
2024/02/22 05:48:37;;;;;;;;;;;;;;;7.55;100.00;94577.25;10375040;28;1852;-63
2024/02/22 05:53:40;;;;;;;;;;;;;;;7.65;100.00;94578.25;10362955;28;1381;-66
2024/02/22 05:58:43;;;;;;;;;;;;;;;7.87;100.00;94565.16;10374585;28;1918;-64
2024/02/22 06:03:46;;;;;;;;;;;;;;;7.87;100.00;94573.19;10368396;28;1925;-65
2024/02/22 06:08:49;;;;;;;;;;;;;;;8.00;100.00;94580.50;10362494;28;1762;-63
2024/02/22 06:13:51;;;;;;;;;;;;;;;7.93;100.00;94580.06;10370987;28;1659;-65
2024/02/22 06:18:54;;;;;;;;;;;;;;;7.97;100.00;94569.59;10371519;28;1995;-64
2024/02/22 06:23:56;;;;;;;;;;;;;;;7.95;100.00;94563.72;10363061;28;1441;-66
2024/02/22 06:28:59;;;;;;;;;;;;;;;7.86;100.00;94561.69;10369398;28;1378;-64
2024/02/22 06:34:02;;;;;;;;;;;;;;;7.80;100.00;94562.81;10362748;28;2498;-64
2024/02/22 06:39:04;;;;;;;;;;;;;;;7.77;100.00;94535.84;10364816;28;1984;-64
2024/02/22 06:44:08;;;;;;;;;;;;;;;7.73;100.00;94540.19;10373343;28;1179;-64
2024/02/22 06:49:10;;;;;;;;;;;;;;;7.67;100.00;94542.09;10373220;28;1655;-70
2024/02/22 06:54:13;;;;;;;;;;;;;;;7.65;100.00;94544.28;10363887;28;1393;-64
2024/02/22 06:59:16;;;;;;;;;;;;;;;7.66;100.00;94545.06;10365292;28;1914;-63
2024/02/22 07:04:19;;;;;;;;;;;;;;;7.60;100.00;94547.00;10363896;28;1691;-64
2024/02/22 07:09:22;;;;;;;;;;;;;;;7.45;100.00;94542.63;10364289;28;1337;-67
2024/02/22 07:14:25;;;;;;;;;;;;;;;7.41;100.00;94549.63;10364500;28;1485;-70
2024/02/22 07:19:28;;;;;;;;;;;;;;;7.38;100.00;94539.50;10370752;28;1918;-66
2024/02/22 07:24:30;;;;;;;;;;;;;;;7.41;100.00;94533.56;10364674;28;1390;-66
2024/02/22 07:29:33;;;;;;;;;;;;;;;7.43;100.00;94526.06;10356591;28;2467;-67
2024/02/22 07:34:35;;;;;;;;;;;;;;;7.47;100.00;94524.41;10362051;28;1060;-65
2024/02/22 07:39:38;;;;;;;;;;;;;;;7.42;100.00;94523.66;10356198;28;1918;-69
2024/02/22 07:44:41;;;;;;;;;;;;;;;7.31;100.00;94518.41;10366145;28;1759;-65
2024/02/22 07:49:44;;;;;;;;;;;;;;;7.26;100.00;94533.75;10362614;28;1425;-65
2024/02/22 07:54:47;;;;;;;;;;;;;;;7.30;100.00;94537.41;10367897;28;1406;-65
2024/02/22 07:59:50;;;;;;;;;;;;;;;7.35;100.00;94539.25;10361583;28;1974;-65
2024/02/22 08:04:52;;;;;;;;;;;;;;;7.39;100.00;94543.75;10361798;28;993;-65
2024/02/22 08:09:55;;;;;;;;;;;;;;;7.53;100.00;94525.94;10366884;28;1556;-72
2024/02/22 08:14:57;;;;;;;;;;;;;;;7.58;100.00;94515.22;10364009;28;1779;-70
2024/02/22 08:20:00;;;;;;;;;;;;;;;7.72;100.00;94533.25;10361245;28;1969;-66
2024/02/22 08:25:02;;;;;;;;;;;;;;;7.70;100.00;94508.63;10365222;28;2269;-66
2024/02/22 08:30:05;;;;;;;;;;;;;;;7.67;100.00;94504.66;10358900;28;1466;-66
2024/02/22 08:35:08;;;;;;;;;;;;;;;7.61;100.00;94503.13;10356577;28;1707;-65
2024/02/22 08:40:11;;;;;;;;;;;;;;;7.55;100.00;94498.91;10358280;28;1919;-64
2024/02/22 08:45:34;;;;;;;;;;;;;;;7.51;100.00;94506.72;10365676;28;1324;-67
2024/02/22 08:50:36;;;;;;;;;;;;;;;7.58;100.00;94493.81;10367684;28;1433;-67
2024/02/22 08:55:38;;;;;;;;;;;;;;;7.59;100.00;94492.72;10368821;28;1112;-66
2024/02/22 09:00:41;;;;;;;;;;;;;;;7.56;100.00;94479.91;10368804;28;1890;-65
2024/02/22 09:05:45;;;;;;;;;;;;;;;7.59;100.00;94479.34;10363505;28;1390;-65
2024/02/22 09:10:48;;;;;;;;;;;;;;;7.64;100.00;94473.16;10358565;28;1100;-67
2024/02/22 09:15:51;;;;;;;;;;;;;;;7.76;100.00;94454.00;10363272;28;1401;-65
2024/02/22 09:20:53;;;;;;;;;;;;;;;8.00;100.00;94452.06;10376530;28;2351;-65
2024/02/22 09:25:56;;;;;;;;;;;;;;;8.14;100.00;94438.75;10371205;28;1769;-65
2024/02/22 09:30:58;;;;;;;;;;;;;;;8.06;100.00;94442.88;10376540;28;1597;-66
2024/02/22 09:36:01;;;;;;;;;;;;;;;8.02;100.00;94436.53;10373623;28;1622;-66
2024/02/22 09:41:04;;;;;;;;;;;;;;;8.13;100.00;94427.25;10379858;28;2164;-70
2024/02/22 09:46:06;;;;;;;;;;;;;;;8.16;100.00;94425.09;10382405;28;1750;-71
2024/02/22 09:51:09;;;;;;;;;;;;;;;8.16;100.00;94431.25;10379075;28;1353;-68
2024/02/22 09:56:11;;;;;;;;;;;;;;;8.13;100.00;94421.88;10375903;28;1655;-65
2024/02/22 10:01:14;;;;;;;;;;;;;;;8.19;100.00;94427.16;10376222;28;1910;-65
2024/02/22 10:06:16;;;;;;;;;;;;;;;8.14;100.00;94417.34;10373389;28;1568;-66
2024/02/22 10:11:20;;;;;;;;;;;;;;;8.08;100.00;94411.28;10373506;28;2306;-68
2024/02/22 10:16:23;;;;;;;;;;;;;;;8.24;100.00;94411.03;10377593;28;1369;-65
2024/02/22 10:21:26;;;;;;;;;;;;;;;8.47;100.00;94404.03;10373227;28;1981;-65
2024/02/22 10:26:29;;;;;;;;;;;;;;;8.64;100.00;94380.94;10378311;28;1508;-66
2024/02/22 10:31:32;;;;;;;;;;;;;;;8.58;100.00;94374.06;10367699;28;1701;-69
2024/02/22 10:36:35;;;;;;;;;;;;;;;8.62;100.00;94361.69;10372611;28;1483;-66
2024/02/22 10:41:37;;;;;;;;;;;;;;;8.46;100.00;94364.91;10365115;28;1891;-67
2024/02/22 10:46:40;;;;;;;;;;;;;;;8.40;100.00;94366.91;10367517;28;1349;-65
2024/02/22 10:51:43;;;;;;;;;;;;;;;8.33;100.00;94358.41;10366457;28;1354;-65
2024/02/22 10:56:46;;;;;;;;;;;;;;;8.48;100.00;94330.63;10373572;28;2616;-66
2024/02/22 11:01:49;;;;;;;;;;;;;;;8.60;100.00;94331.72;10374647;28;2003;-68
2024/02/22 11:06:52;;;;;;;;;;;;;;;9.03;100.00;94307.31;10366001;28;1549;-66
2024/02/22 11:11:55;;;;;;;;;;;;;;;9.55;100.00;94283.69;10370358;28;1156;-65
2024/02/22 11:16:59;;;;;;;;;;;;;;;9.56;100.00;94268.38;10372272;28;1941;-68
2024/02/22 11:22:01;;;;;;;;;;;;;;;9.65;100.00;94245.88;10376124;28;1910;-72
2024/02/22 11:27:04;;;;;;;;;;;;;;;9.71;100.00;94231.25;10380327;28;2479;-67
2024/02/22 11:32:06;;;;;;;;;;;;;;;10.20;100.00;94205.34;10371011;28;1445;-67
2024/02/22 11:37:09;;;;;;;;;;;;;;;10.97;100.00;94187.09;10370790;28;1337;-65
2024/02/22 11:42:12;;;;;;;;;;;;;;;11.10;100.00;94153.91;10364578;28;2677;-67
2024/02/22 11:47:14;;;;;;;;;;;;;;;11.24;100.00;94146.47;10368443;28;1462;-66
2024/02/22 11:52:20;;;;;;;;;;;;;;;11.16;100.00;94130.34;10366176;28;1467;-67
2024/02/22 11:57:23;;;;;;;;;;;;;;;11.80;100.00;94112.34;10371278;28;1495;-64
2024/02/22 12:02:25;;;;;;;;;;;;;;;11.98;100.00;94101.56;10364444;28;1907;-68
2024/02/22 12:07:28;;;;;;;;;;;;;;;12.21;100.00;94088.59;10367479;28;1590;-64
2024/02/22 12:12:32;;;;;;;;;;;;;;;11.83;100.00;94084.81;10364745;28;1921;-66
2024/02/22 12:17:34;;;;;;;;;;;;;;;11.75;100.00;94066.75;10362546;28;1357;-67
2024/02/22 12:22:37;;;;;;;;;;;;;;;11.79;100.00;94065.00;10374467;28;1918;-73
2024/02/22 12:27:40;;;;;;;;;;;;;;;11.89;100.00;94051.19;10359001;28;1175;-74
2024/02/22 12:32:42;;;;;;;;;;;;;;;12.45;100.00;94037.59;10369085;28;1692;-69
2024/02/22 12:37:45;;;;;;;;;;;;;;;12.72;100.00;94017.41;10364959;28;1397;-65
2024/02/22 12:42:48;;;;;;;;;;;;;;;13.07;100.00;93990.94;10367579;28;1918;-66
2024/02/22 12:47:50;;;;;;;;;;;;;;;13.25;100.00;93975.41;10362500;28;2841;-65
2024/02/22 12:52:53;;;;;;;;;;;;;;;13.39;100.00;93967.00;10354388;28;1586;-66
2024/02/22 12:57:56;;;;;;;;;;;;;;;13.09;100.00;93947.44;10363418;28;1600;-69
2024/02/22 13:02:58;;;;;;;;;;;;;;;12.83;100.00;93940.41;10361544;28;1983;-65
2024/02/22 13:08:01;;;;;;;;;;;;;;;12.77;100.00;93925.56;10363878;28;1529;-66
2024/02/22 13:13:07;;;;;;;;;;;;;;;12.55;100.00;93917.84;10361184;28;1531;-66
2024/02/22 13:18:10;;;;;;;;;;;;;;;12.63;100.00;93898.91;10358427;28;1588;-65
2024/02/22 13:23:15;;;;;;;;;;;;;;;12.24;100.00;93881.34;10361329;28;1918;-69
2024/02/22 13:28:18;;;;;;;;;;;;;;;12.20;100.00;93866.94;10367772;28;1474;-66
2024/02/22 13:33:20;;;;;;;;;;;;;;;11.99;100.00;93866.16;10357915;28;1608;-66
2024/02/22 13:38:23;;;;;;;;;;;;;;;11.75;100.00;93856.78;10362425;28;1394;-67
2024/02/22 13:43:26;;;;;;;;;;;;;;;11.65;100.00;93854.50;10357333;28;2524;-66
2024/02/22 13:48:31;;;;;;;;;;;;;;;11.56;100.00;93857.22;10358954;28;2162;-66
2024/02/22 13:53:33;;;;;;;;;;;;;;;11.53;100.00;93843.66;10361618;28;1501;-66
2024/02/22 13:58:38;;;;;;;;;;;;;;;11.32;100.00;93841.72;10363524;28;1726;-67
2024/02/22 14:03:40;;;;;;;;;;;;;;;11.28;100.00;93838.09;10364072;28;1910;-66
2024/02/22 14:08:43;;;;;;;;;;;;;;;11.19;100.00;93834.66;10371646;28;1393;-66
2024/02/22 14:13:46;;;;;;;;;;;;;;;11.10;100.00;93820.47;10364937;28;1377;-72
2024/02/22 14:18:49;;;;;;;;;;;;;;;11.18;100.00;93838.44;10371679;28;1771;-72
2024/02/22 14:23:53;;;;;;;;;;;;;;;10.95;100.00;93829.09;10372141;28;1988;-69
2024/02/22 14:28:56;;;;;;;;;;;;;;;10.91;100.00;93806.63;10372307;28;1159;-65
2024/02/22 14:33:59;;;;;;;;;;;;;;;10.84;100.00;93804.47;10371381;28;1428;-69
2024/02/22 14:39:01;;;;;;;;;;;;;;;10.71;100.00;93797.41;10368359;28;2325;-67
2024/02/22 14:44:04;;;;;;;;;;;;;;;10.57;100.00;93786.88;10361813;28;1914;-67
2024/02/22 14:49:06;;;;;;;;;;;;;;;10.43;100.00;93795.13;10364724;28;1618;-67
2024/02/22 14:54:09;;;;;;;;;;;;;;;10.33;100.00;93798.13;10367916;28;1370;-65
2024/02/22 14:59:11;;;;;;;;;;;;;;;10.27;100.00;93794.84;10377482;28;1366;-66
2024/02/22 15:04:14;;;;;;;;;;;;;;;10.19;100.00;93809.03;10369436;28;1981;-66
2024/02/22 15:09:17;;;;;;;;;;;;;;;10.09;100.00;93803.22;10371846;28;1436;-67
2024/02/22 15:14:22;;;;;;;;;;;;;;;9.98;100.00;93786.63;10369888;28;1156;-68
2024/02/22 15:19:25;;;;;;;;;;;;;;;9.89;100.00;93772.44;10367256;28;1508;-67
2024/02/22 15:24:28;;;;;;;;;;;;;;;9.85;100.00;93776.84;10369241;28;1918;-67
2024/02/22 15:29:31;;;;;;;;;;;;;;;9.80;100.00;93769.78;10377651;28;1207;-70
2024/02/22 15:34:34;;;;;;;;;;;;;;;9.74;100.00;93779.09;10365150;28;2956;-75
2024/02/22 15:39:41;;;;;;;;;;;;;;;9.69;100.00;93774.66;10367220;28;1554;-67
2024/02/22 15:44:44;;;;;;;;;;;;;;;9.62;100.00;93795.81;10365493;28;1938;-65
2024/02/22 15:49:46;;;;;;;;;;;;;;;9.53;100.00;93786.97;10366492;28;2372;-66
2024/02/22 15:54:49;;;;;;;;;;;;;;;9.51;100.00;93783.81;10361622;28;1390;-67
2024/02/22 15:59:52;;;;;;;;;;;;;;;9.40;100.00;93777.19;10362915;28;1735;-67
2024/02/22 16:04:54;;;;;;;;;;;;;;;9.32;100.00;93769.91;10360230;28;1977;-66
2024/02/22 16:09:57;;;;;;;;;;;;;;;9.23;100.00;93771.81;10362675;28;1314;-66
2024/02/22 16:15:02;;;;;;;;;;;;;;;9.16;100.00;93762.34;10364188;28;1369;-70
2024/02/22 16:20:05;;;;;;;;;;;;;;;9.18;100.00;93762.81;10367621;28;1044;-65
2024/02/22 16:25:08;;;;;;;;;;;;;;;9.11;100.00;93754.44;10367119;28;1910;-66
2024/02/22 16:30:10;;;;;;;;;;;;;;;9.09;100.00;93748.59;10356419;28;2371;-67
2024/02/22 16:35:13;;;;;;;;;;;;;;;9.07;100.00;93748.13;10360924;28;1503;-66
2024/02/22 16:40:18;;;;;;;;;;;;;;;9.03;100.00;93739.13;10359349;28;1571;-66
2024/02/22 16:45:22;;;;;;;;;;;;;;;8.99;100.00;93738.19;10364477;28;1911;-67
2024/02/22 16:50:25;;;;;;;;;;;;;;;8.97;100.00;93739.59;10362928;28;1437;-68
2024/02/22 16:55:28;;;;;;;;;;;;;;;8.92;100.00;93722.56;10362606;28;1648;-69
2024/02/22 17:00:31;;;;;;;;;;;;;;;8.88;100.00;93705.53;10366761;28;1405;-67
2024/02/22 17:05:34;;;;;;;;;;;;;;;8.91;100.00;93720.22;10359628;28;1977;-66
2024/02/22 17:10:37;;;;;;;;;;;;;;;9.02;100.00;93739.44;10368420;28;1104;-65
2024/02/22 17:15:39;;;;;;;;;;;;;;;9.02;100.00;93734.88;10356235;28;1318;-69
2024/02/22 17:20:43;;;;;;;;;;;;;;;9.08;100.00;93738.97;10360502;28;1349;-66
2024/02/22 17:25:45;;;;;;;;;;;;;;;9.11;100.00;93749.09;10367135;28;1926;-67
2024/02/22 17:30:48;;;;;;;;;;;;;;;9.12;100.00;93733.78;10352964;28;1346;-76
2024/02/22 17:35:50;;;;;;;;;;;;;;;9.02;100.00;93750.94;10357991;28;3142;-69
2024/02/22 17:40:52;;;;;;;;;;;;;;;9.00;100.00;93777.28;10361569;28;1850;-71
2024/02/22 17:45:55;;;;;;;;;;;;;;;9.03;100.00;93765.91;10373453;28;1991;-69
2024/02/22 17:50:58;;;;;;;;;;;;;;;9.05;100.00;93747.66;10370840;28;1425;-66
2024/02/22 17:56:01;;;;;;;;;;;;;;;9.02;100.00;93734.88;10369208;28;1663;-68
2024/02/22 18:01:04;;;;;;;;;;;;;;;9.03;100.00;93720.34;10374551;28;1080;-66
2024/02/22 18:06:06;;;;;;;;;;;;;;;8.99;100.00;93711.38;10372399;28;1915;-67
2024/02/22 18:11:09;;;;;;;;;;;;;;;8.95;100.00;93702.38;10367997;28;1218;-68
2024/02/22 18:16:12;;;;;;;;;;;;;;;9.01;100.00;93708.38;10368498;28;1370;-65
2024/02/22 18:21:15;;;;;;;;;;;;;;;9.02;100.00;93712.63;10365028;28;2292;-69
2024/02/22 18:26:17;;;;;;;;;;;;;;;8.98;100.00;93701.00;10370943;28;1914;-67
2024/02/22 18:31:20;;;;;;;;;;;;;;;8.96;100.00;93690.56;10365857;28;1542;-66
2024/02/22 18:36:23;;;;;;;;;;;;;;;8.95;100.00;93680.94;10367263;28;1694;-68
2024/02/22 18:41:25;;;;;;;;;;;;;;;8.93;100.00;93654.47;10363185;28;1029;-65
2024/02/22 18:46:29;;;;;;;;;;;;;;;8.91;100.00;93650.53;10369281;28;1390;-66
2024/02/22 18:51:32;;;;;;;;;;;;;;;8.89;100.00;93658.09;10357525;28;1400;-66
2024/02/22 18:56:36;;;;;;;;;;;;;;;8.84;100.00;93639.47;10371109;28;1160;-71
2024/02/22 19:01:39;;;;;;;;;;;;;;;8.86;100.00;93627.38;10363746;28;1914;-66
2024/02/22 19:06:42;;;;;;;;;;;;;;;8.93;100.00;93635.72;10366282;28;1378;-66
2024/02/22 19:11:44;;;;;;;;;;;;;;;8.87;100.00;93617.44;10366734;28;1237;-70
2024/02/22 19:16:47;;;;;;;;;;;;;;;8.93;100.00;93618.84;10361297;28;1435;-68
2024/02/22 19:21:50;;;;;;;;;;;;;;;8.91;100.00;93618.41;10368438;28;1914;-67
2024/02/22 19:26:56;;;;;;;;;;;;;;;8.96;100.00;93618.22;10365000;28;2828;-69
2024/02/22 19:32:00;;;;;;;;;;;;;;;8.93;100.00;93606.25;10373357;28;1632;-71
2024/02/22 19:37:04;;;;;;;;;;;;;;;8.97;100.00;93603.75;10373663;28;1520;-77
2024/02/22 19:42:07;;;;;;;;;;;;;;;8.90;100.00;93581.97;10373183;28;1914;-71
2024/02/22 19:47:10;;;;;;;;;;;;;;;8.92;100.00;93582.44;10369335;28;1700;-70
2024/02/22 19:52:12;;;;;;;;;;;;;;;8.88;100.00;93576.13;10367250;28;1401;-67
2024/02/22 19:57:19;;;;;;;;;;;;;;;8.87;100.00;93582.59;10359163;28;1401;-66
2024/02/22 20:02:21;;;;;;;;;;;;;;;8.81;100.00;93587.34;10368922;28;1918;-69
2024/02/22 20:07:24;;;;;;;;;;;;;;;8.87;100.00;93591.44;10369507;28;1387;-66
2024/02/22 20:12:30;;;;;;;;;;;;;;;8.85;100.00;93574.09;10366350;28;2871;-68
2024/02/22 20:17:32;;;;;;;;;;;;;;;8.81;100.00;93562.44;10362973;28;1530;-66
2024/02/22 20:22:35;;;;;;;;;;;;;;;8.81;100.00;93559.75;10367281;28;1914;-68
2024/02/22 20:27:37;;;;;;;;;;;;;;;8.87;100.00;93555.81;10366537;28;1119;-68
2024/02/22 20:32:40;;;;;;;;;;;;;;;8.87;100.00;93555.81;10367569;28;1684;-70
2024/02/22 20:37:43;;;;;;;;;;;;;;;8.83;100.00;93542.25;10367122;28;1457;-68
2024/02/22 20:42:45;;;;;;;;;;;;;;;8.83;100.00;93549.50;10366542;28;1971;-67
2024/02/22 20:47:48;;;;;;;;;;;;;;;8.86;100.00;93536.28;10355943;28;1725;-67
2024/02/22 20:52:51;;;;;;;;;;;;;;;8.85;100.00;93548.09;10359834;28;2332;-67
2024/02/22 20:57:53;;;;;;;;;;;;;;;8.84;100.00;93551.88;10360060;28;1583;-67
2024/02/22 21:03:00;;;;;;;;;;;;;;;8.79;100.00;93543.22;10367986;28;1993;-67
2024/02/22 21:08:03;;;;;;;;;;;;;;;8.72;100.00;93543.69;10368651;28;1691;-67
2024/02/22 21:13:10;;;;;;;;;;;;;;;8.67;100.00;93530.47;10362804;28;1048;-70
2024/02/22 21:18:14;;;;;;;;;;;;;;;8.68;100.00;93539.28;10360895;28;1374;-72
2024/02/22 21:23:18;;;;;;;;;;;;;;;8.68;100.00;93545.44;10364881;28;2048;-69
2024/02/22 21:28:21;;;;;;;;;;;;;;;8.63;100.00;93538.31;10360375;28;1313;-74
2024/02/22 21:33:24;;;;;;;;;;;;;;;8.62;100.00;93544.78;10358785;28;1639;-66
2024/02/22 21:38:28;;;;;;;;;;;;;;;8.68;100.00;93547.31;10360766;28;1365;-67
2024/02/22 21:43:30;;;;;;;;;;;;;;;8.66;100.00;93571.75;10361196;28;1977;-66
2024/02/22 21:48:34;;;;;;;;;;;;;;;8.61;100.00;93563.84;10360264;28;2276;-68
2024/02/22 21:53:37;;;;;;;;;;;;;;;8.65;100.00;93570.97;10367196;28;1517;-69
2024/02/22 21:58:40;;;;;;;;;;;;;;;8.66;100.00;93577.88;10363952;28;1541;-66
2024/02/22 22:03:42;;;;;;;;;;;;;;;8.61;100.00;93553.94;10378751;28;1942;-69
2024/02/22 22:08:45;;;;;;;;;;;;;;;8.56;100.00;93553.28;10363786;28;1377;-67
2024/02/22 22:13:48;;;;;;;;;;;;;;;8.52;100.00;93546.97;10363536;28;1326;-68
2024/02/22 22:18:50;;;;;;;;;;;;;;;8.50;100.00;93557.22;10362665;28;1767;-67
2024/02/22 22:23:53;;;;;;;;;;;;;;;8.46;100.00;93551.72;10355629;28;1939;-67
2024/02/22 22:28:56;;;;;;;;;;;;;;;8.50;100.00;93541.16;10369200;28;1132;-67
2024/02/22 22:33:59;;;;;;;;;;;;;;;8.54;100.00;93531.41;10377608;28;1652;-67
2024/02/22 22:39:02;;;;;;;;;;;;;;;8.40;100.00;93518.19;10365764;28;1550;-66
2024/02/22 22:44:05;;;;;;;;;;;;;;;8.41;100.00;93513.63;10371363;28;2419;-65
2024/02/22 22:49:07;;;;;;;;;;;;;;;8.45;100.00;93526.03;10362346;28;1498;-67
2024/02/22 22:54:10;;;;;;;;;;;;;;;8.49;100.00;93528.88;10368307;28;1343;-66
2024/02/22 22:59:12;;;;;;;;;;;;;;;8.47;100.00;93565.91;10371758;28;1537;-67
2024/02/22 23:04:15;;;;;;;;;;;;;;;8.46;100.00;93629.38;10365411;28;1918;-67
2024/02/22 23:09:19;;;;;;;;;;;;;;;8.44;100.00;93703.84;10370451;28;1437;-67
2024/02/22 23:14:22;;;;;;;;;;;;;;;8.13;100.00;93733.28;10366908;28;1671;-67
2024/02/22 23:19:25;;;;;;;;;;;;;;;7.98;100.00;93745.19;10364484;28;1290;-66
2024/02/22 23:24:28;;;;;;;;;;;;;;;7.70;100.00;93765.13;10367611;28;1976;-66
2024/02/22 23:29:30;;;;;;;;;;;;;;;7.47;100.00;93751.75;10365224;28;1369;-67
2024/02/22 23:34:33;;;;;;;;;;;;;;;7.30;100.00;93762.31;10366833;28;1640;-67
2024/02/22 23:39:36;;;;;;;;;;;;;;;7.13;100.00;93770.19;10361215;28;2396;-68
2024/02/22 23:44:39;;;;;;;;;;;;;;;7.08;100.00;93768.41;10363413;28;1910;-66
2024/02/22 23:49:41;;;;;;;;;;;;;;;7.07;100.00;93779.41;10364938;28;1482;-66
2024/02/22 23:54:44;;;;;;;;;;;;;;;7.09;100.00;93788.69;10361443;28;1862;-66
2024/02/22 23:59:47;;;;;;;;;;;;;;;7.01;100.00;93802.75;10365005;28;1364;-72
